Time;durP1;ratioP1;P1;durP2;ratioP2;P2;SDS_P1;SDS_P2;PMS_P1;PMS_P2;Temp;Humidity;BMP_temperature;BMP_pressure;BME280_temperature;BME280_humidity;BME280_pressure;Samples;Min_cycle;Max_cycle;Signal;HPM_P1;HPM_P2
2022/03/16 00:00:23;;;;;;;;;24.75;24.25;;;;;11.30;100.00;101733.34;5079466;27;45303;-83
2022/03/16 00:02:49;;;;;;;;;24.75;23.75;;;;;11.26;100.00;101734.44;5080482;28;45449;-84
2022/03/16 00:05:15;;;;;;;;;27.50;24.50;;;;;11.24;100.00;101736.34;5081677;27;44725;-84
2022/03/16 00:07:41;;;;;;;;;27.00;24.00;;;;;11.22;100.00;101732.06;5082593;27;45007;-83
2022/03/16 00:10:08;;;;;;;;;25.25;25.25;;;;;11.21;100.00;101739.16;5079479;28;44799;-85
2022/03/16 00:12:35;;;;;;;;;27.50;24.00;;;;;11.20;100.00;101729.47;5078724;27;45247;-84
2022/03/16 00:15:00;;;;;;;;;28.00;21.75;;;;;11.21;100.00;101732.97;5080159;27;45196;-85
2022/03/16 00:17:26;;;;;;;;;29.75;27.00;;;;;11.22;100.00;101746.22;5080840;27;46125;-84
2022/03/16 00:19:51;;;;;;;;;20.50;20.50;;;;;11.23;100.00;101731.09;5089116;27;45422;-85
2022/03/16 00:22:17;;;;;;;;;28.00;26.50;;;;;11.22;100.00;101732.06;5082237;27;45296;-84
2022/03/16 00:24:42;;;;;;;;;23.75;18.25;;;;;11.20;100.00;101725.94;5080062;27;45309;-83
2022/03/16 00:27:08;;;;;;;;;30.25;28.75;;;;;11.22;100.00;101738.22;5080516;27;45213;-85
2022/03/16 00:29:33;;;;;;;;;24.25;22.25;;;;;11.24;100.00;101730.16;5065682;27;44834;-84
2022/03/16 00:31:59;;;;;;;;;24.00;24.00;;;;;11.23;100.00;101736.44;5066341;28;45355;-84
2022/03/16 00:34:26;;;;;;;;;29.25;27.25;;;;;11.21;100.00;101732.97;5067080;28;45299;-85
2022/03/16 00:36:52;;;;;;;;;30.25;24.75;;;;;11.21;100.00;101722.34;5066566;28;46415;-85
2022/03/16 00:39:17;;;;;;;;;24.25;23.50;;;;;11.20;100.00;101729.47;5066933;28;44752;-84
2022/03/16 00:41:42;;;;;;;;;23.50;23.25;;;;;11.21;100.00;101725.00;5066901;28;45268;-85
2022/03/16 00:44:08;;;;;;;;;28.75;27.50;;;;;11.20;100.00;101724.13;5065749;28;44916;-84
2022/03/16 00:46:34;;;;;;;;;29.00;25.25;;;;;11.23;100.00;101720.47;5069722;28;46977;-82
2022/03/16 00:49:00;;;;;;;;;23.25;21.25;;;;;11.23;100.00;101716.00;5079140;27;44764;-83
2022/03/16 00:51:25;;;;;;;;;24.25;21.50;;;;;11.25;100.00;101710.59;5090259;27;44765;-82
2022/03/16 00:53:51;;;;;;;;;29.00;24.75;;;;;11.26;100.00;101709.66;5104345;27;45590;-84
2022/03/16 00:56:17;;;;;;;;;29.00;25.00;;;;;11.28;100.00;101711.28;5098829;27;45429;-85
2022/03/16 00:58:42;;;;;;;;;27.25;25.50;;;;;11.29;100.00;101712.16;5069731;28;45343;-84
2022/03/16 01:01:08;;;;;;;;;19.75;17.00;;;;;11.27;100.00;101704.25;5066375;28;45284;-85
2022/03/16 01:03:34;;;;;;;;;26.75;22.00;;;;;11.28;100.00;101703.31;5061582;28;45377;-84
2022/03/16 01:06:00;;;;;;;;;20.50;20.00;;;;;11.28;100.00;101702.47;5061804;28;45367;-84
2022/03/16 01:08:26;;;;;;;;;24.25;24.00;;;;;11.28;100.00;101697.13;5062540;27;45523;-85
2022/03/16 01:10:52;;;;;;;;;26.25;23.25;;;;;11.27;100.00;101698.94;5065209;28;45291;-84
2022/03/16 01:13:18;;;;;;;;;28.25;24.25;;;;;11.29;100.00;101693.53;5063161;27;45256;-87
2022/03/16 01:15:43;;;;;;;;;24.75;23.25;;;;;11.28;100.00;101691.81;5064341;28;45294;-84
2022/03/16 01:18:09;;;;;;;;;27.25;24.75;;;;;11.28;100.00;101683.84;5062793;27;45256;-85
2022/03/16 01:20:34;;;;;;;;;21.75;19.25;;;;;11.29;100.00;101680.22;5063227;28;45370;-84
2022/03/16 01:23:00;;;;;;;;;19.75;19.75;;;;;11.26;100.00;101673.25;5058153;28;45239;-84
2022/03/16 01:25:26;;;;;;;;;21.75;20.25;;;;;11.28;100.00;101681.19;5058474;28;45916;-84
2022/03/16 01:27:52;;;;;;;;;26.50;23.50;;;;;11.26;100.00;101677.72;5072878;27;45424;-85
2022/03/16 01:30:17;;;;;;;;;28.00;25.50;;;;;11.19;100.00;101671.91;5060229;28;44843;-83
2022/03/16 01:32:43;;;;;;;;;23.75;23.75;;;;;11.17;100.00;101667.59;5061023;28;45406;-85
2022/03/16 01:35:09;;;;;;;;;23.00;20.50;;;;;11.14;100.00;101665.13;5064812;28;45519;-85
2022/03/16 01:37:35;;;;;;;;;27.75;24.00;;;;;11.12;100.00;101664.31;5058635;27;44791;-83
2022/03/16 01:40:02;;;;;;;;;24.25;19.50;;;;;11.09;100.00;101661.84;5056795;28;45536;-82
2022/03/16 01:42:28;;;;;;;;;21.25;19.75;;;;;11.09;100.00;101659.19;5057955;28;44919;-82
2022/03/16 01:44:57;;;;;;;;;23.75;22.25;;;;;11.10;100.00;101656.44;5059516;28;46022;-85
2022/03/16 01:47:24;;;;;;;;;26.75;24.00;;;;;11.11;100.00;101657.28;5060631;28;45612;-85
2022/03/16 01:49:51;;;;;;;;;22.00;21.50;;;;;11.10;100.00;101661.75;5063869;28;45421;-83
2022/03/16 01:52:20;;;;;;;;;23.25;22.00;;;;;11.08;100.00;101666.31;5060523;28;44762;-84
2022/03/16 01:54:46;;;;;;;;;27.00;25.50;;;;;11.09;100.00;101664.50;5063630;28;45300;-85
2022/03/16 01:57:12;;;;;;;;;25.50;19.50;;;;;11.08;100.00;101668.97;5062156;28;44755;-84
2022/03/16 01:59:39;;;;;;;;;23.00;21.50;;;;;11.06;100.00;101661.06;5065776;27;45303;-84
2022/03/16 02:02:06;;;;;;;;;25.00;19.75;;;;;11.05;100.00;101671.78;5062549;27;45296;-84
2022/03/16 02:04:31;;;;;;;;;20.00;18.00;;;;;11.05;100.00;101669.97;5059875;28;45550;-85
2022/03/16 02:06:59;;;;;;;;;20.00;18.25;;;;;11.06;100.00;101662.84;5056258;28;45277;-84
2022/03/16 02:09:24;;;;;;;;;24.00;21.50;;;;;11.05;100.00;101662.00;5056439;28;44876;-85
2022/03/16 02:11:50;;;;;;;;;21.00;20.00;;;;;11.05;100.00;101661.16;5058136;28;44860;-85
2022/03/16 02:14:17;;;;;;;;;24.00;20.75;;;;;11.03;100.00;101666.56;5073923;28;46249;-83
2022/03/16 02:16:46;;;;;;;;;19.25;16.75;;;;;11.02;100.00;101662.19;5059011;27;44811;-83
2022/03/16 02:19:11;;;;;;;;;20.50;17.25;;;;;10.98;100.00;101657.97;5075607;28;44730;-83
2022/03/16 02:21:39;;;;;;;;;20.75;19.25;;;;;10.98;100.00;101665.94;5063173;28;44875;-83
2022/03/16 02:24:05;;;;;;;;;23.50;21.25;;;;;10.97;100.00;101669.53;5065016;28;46262;-84
2022/03/16 02:26:31;;;;;;;;;21.60;19.20;;;;;10.94;100.00;101666.19;5060086;28;45170;-82
2022/03/16 02:28:57;;;;;;;;;18.25;17.25;;;;;10.91;100.00;101667.19;5057972;28;44774;-84
2022/03/16 02:31:24;;;;;;;;;22.00;19.75;;;;;10.88;100.00;101662.06;5060119;28;45245;-85
2022/03/16 02:33:49;;;;;;;;;20.50;18.50;;;;;10.85;100.00;101661.38;5060415;28;45518;-84
2022/03/16 02:36:15;;;;;;;;;16.00;15.25;;;;;10.81;100.00;101658.84;5063532;28;44777;-84
2022/03/16 02:38:40;;;;;;;;;24.50;23.00;;;;;10.78;100.00;101658.16;5065496;28;45538;-85
2022/03/16 02:41:06;;;;;;;;;23.75;18.50;;;;;10.73;100.00;101647.78;5064440;28;45599;-84
2022/03/16 02:43:31;;;;;;;;;18.25;17.25;;;;;10.70;100.00;101647.94;5064414;28;45128;-82
2022/03/16 02:45:57;;;;;;;;;23.50;23.25;;;;;10.68;100.00;101644.50;5063297;28;44747;-83
2022/03/16 02:48:22;;;;;;;;;19.75;18.50;;;;;10.64;100.00;101642.09;5060997;28;44757;-84
2022/03/16 02:50:49;;;;;;;;;25.00;19.75;;;;;10.61;100.00;101645.78;5056779;28;45581;-84
2022/03/16 02:53:15;;;;;;;;;25.50;24.00;;;;;10.59;100.00;101645.00;5057724;28;45244;-83
2022/03/16 02:55:42;;;;;;;;;28.25;26.00;;;;;10.54;100.00;101642.59;5056604;28;44736;-84
2022/03/16 02:58:08;;;;;;;;;23.25;20.50;;;;;10.50;100.00;101638.38;5057479;28;45347;-83
2022/03/16 03:00:34;;;;;;;;;25.25;21.50;;;;;10.47;100.00;101638.50;5063796;28;45389;-84
2022/03/16 03:02:59;;;;;;;;;24.75;23.25;;;;;10.45;100.00;101645.72;5065668;28;45346;-83
2022/03/16 03:05:25;;;;;;;;;27.00;23.50;;;;;10.45;100.00;101642.22;5065958;28;45379;-84
2022/03/16 03:07:51;;;;;;;;;22.25;21.50;;;;;10.42;100.00;101648.53;5065348;28;44732;-82
2022/03/16 03:10:17;;;;;;;;;24.00;23.50;;;;;10.44;100.00;101640.47;5075168;28;45125;-83
2022/03/16 03:12:43;;;;;;;;;26.25;23.00;;;;;10.43;100.00;101642.25;5073452;28;45023;-84
2022/03/16 03:15:11;;;;;;;;;22.50;21.00;;;;;10.43;100.00;101641.41;5081020;28;45465;-84
2022/03/16 03:17:37;;;;;;;;;26.50;23.00;;;;;10.42;100.00;101642.34;5070473;28;44800;-85
2022/03/16 03:20:04;;;;;;;;;28.00;23.75;;;;;10.41;100.00;101644.16;5070618;28;44831;-83
2022/03/16 03:22:29;;;;;;;;;23.25;22.00;;;;;10.39;100.00;101640.69;5068023;28;45517;-82
2022/03/16 03:24:55;;;;;;;;;22.25;22.25;;;;;10.41;100.00;101643.28;5070670;28;44859;-83
2022/03/16 03:27:22;;;;;;;;;27.50;26.75;;;;;10.42;100.00;101651.19;5069571;28;45410;-83
2022/03/16 03:29:47;;;;;;;;;26.50;24.50;;;;;10.41;100.00;101641.50;5067961;28;44845;-84
2022/03/16 03:32:12;;;;;;;;;25.00;23.25;;;;;10.42;100.00;101639.69;5069954;28;45187;-82
2022/03/16 03:34:39;;;;;;;;;28.50;27.00;;;;;10.41;100.00;101637.97;5074340;28;45203;-84
2022/03/16 03:37:06;;;;;;;;;25.75;22.25;;;;;10.40;100.00;101642.44;5065779;28;44798;-83
2022/03/16 03:39:32;;;;;;;;;32.00;26.25;;;;;10.39;100.00;101651.31;5070868;28;44926;-84
2022/03/16 03:41:57;;;;;;;;;27.50;25.00;;;;;10.37;100.00;101658.53;5072421;27;45037;-83
2022/03/16 03:44:23;;;;;;;;;30.25;27.25;;;;;10.35;100.00;101648.91;5073266;28;45197;-82
2022/03/16 03:46:48;;;;;;;;;25.50;23.50;;;;;10.33;100.00;101651.66;5071722;28;44750;-83
2022/03/16 03:49:14;;;;;;;;;26.00;24.00;;;;;10.32;100.00;101646.41;5071226;28;44874;-83
2022/03/16 03:51:39;;;;;;;;;31.25;25.50;;;;;10.31;100.00;101652.69;5069061;28;46580;-84
2022/03/16 03:54:04;;;;;;;;;24.75;20.75;;;;;10.26;100.00;101652.91;5083468;28;44777;-83
2022/03/16 03:56:30;;;;;;;;;26.75;24.25;;;;;10.24;100.00;101649.47;5085597;27;45314;-83
2022/03/16 03:58:55;;;;;;;;;24.75;22.50;;;;;10.20;100.00;101648.75;5070828;28;44889;-82
2022/03/16 04:01:20;;;;;;;;;36.50;29.25;;;;;10.17;100.00;101648.88;5069923;28;45311;-83
2022/03/16 04:03:46;;;;;;;;;24.75;21.50;;;;;10.15;100.00;101648.09;5067799;28;45357;-81
2022/03/16 04:06:12;;;;;;;;;30.00;28.50;;;;;10.13;100.00;101649.97;5072283;28;44962;-83
2022/03/16 04:08:37;;;;;;;;;28.25;24.50;;;;;10.10;100.00;101644.81;5067775;28;45000;-83
2022/03/16 04:11:03;;;;;;;;;28.50;26.50;;;;;10.09;100.00;101637.78;5068923;28;46178;-82
2022/03/16 04:13:28;;;;;;;;;30.00;21.50;;;;;10.08;100.00;101643.19;5075438;28;45207;-83
2022/03/16 04:15:54;;;;;;;;;25.50;25.00;;;;;10.05;100.00;101641.53;5076066;28;44662;-84
2022/03/16 04:18:19;;;;;;;;;32.75;25.50;;;;;10.04;100.00;101631.84;5077277;28;44967;-82
2022/03/16 04:20:45;;;;;;;;;28.25;26.75;;;;;10.02;100.00;101628.44;5077459;28;45192;-84
2022/03/16 04:23:10;;;;;;;;;26.50;22.25;;;;;10.03;100.00;101627.47;5063725;28;45279;-83
2022/03/16 04:25:35;;;;;;;;;33.50;30.25;;;;;10.01;100.00;101616.09;5067652;28;44747;-83
2022/03/16 04:28:01;;;;;;;;;28.25;25.75;;;;;9.99;100.00;101618.81;5063729;28;44783;-84
2022/03/16 04:30:26;;;;;;;;;32.00;26.50;;;;;9.96;100.00;101615.44;5059331;28;46745;-82
2022/03/16 04:32:52;;;;;;;;;33.50;28.25;;;;;9.92;100.00;101612.09;5060105;27;45481;-84
2022/03/16 04:35:20;;;;;;;;;31.50;27.75;;;;;9.88;100.00;101621.16;5059296;28;44850;-84
2022/03/16 04:37:46;;;;;;;;;31.50;28.25;;;;;9.85;100.00;101623.94;5058567;28;45492;-83
2022/03/16 04:40:12;;;;;;;;;24.50;24.25;;;;;9.82;100.00;101623.25;5058764;28;45274;-83
2022/03/16 04:42:38;;;;;;;;;34.50;28.25;;;;;9.77;100.00;101610.22;5059923;27;45138;-83
2022/03/16 04:45:04;;;;;;;;;30.75;28.50;;;;;9.76;100.00;101606.69;5059710;28;44620;-84
2022/03/16 04:47:29;;;;;;;;;31.75;28.25;;;;;9.74;100.00;101611.22;5060981;28;45216;-83
2022/03/16 04:49:55;;;;;;;;;27.25;24.50;;;;;9.73;100.00;101613.94;5063571;28;45050;-83
2022/03/16 04:52:20;;;;;;;;;31.00;27.25;;;;;9.71;100.00;101613.16;5069108;27;45277;-84
2022/03/16 04:54:45;;;;;;;;;39.00;30.75;;;;;9.69;100.00;101609.72;5086750;28;45271;-84
2022/03/16 04:57:11;;;;;;;;;34.75;27.25;;;;;9.66;100.00;101618.69;5070211;27;44804;-83
2022/03/16 04:59:36;;;;;;;;;31.50;28.50;;;;;9.66;100.00;101626.63;5059903;27;44962;-84
2022/03/16 05:02:02;;;;;;;;;34.50;31.00;;;;;9.65;100.00;101627.59;5060922;28;44770;-85
2022/03/16 05:04:27;;;;;;;;;30.75;27.00;;;;;9.62;100.00;101630.41;5060623;28;45236;-84
2022/03/16 05:06:52;;;;;;;;;26.00;25.00;;;;;9.60;100.00;101624.28;5060826;28;45264;-83
2022/03/16 05:09:18;;;;;;;;;33.25;27.50;;;;;9.60;100.00;101618.13;5060982;28;46456;-84
2022/03/16 05:11:44;;;;;;;;;24.75;21.75;;;;;9.57;100.00;101616.47;5061758;28;44694;-83
2022/03/16 05:14:09;;;;;;;;;33.50;28.25;;;;;9.58;100.00;101612.91;5058883;28;44827;-83
2022/03/16 05:16:35;;;;;;;;;29.00;26.00;;;;;9.57;100.00;101621.78;5059155;28;45540;-83
2022/03/16 05:19:01;;;;;;;;;30.50;28.25;;;;;9.56;100.00;101611.25;5063748;28;45379;-82
2022/03/16 05:21:27;;;;;;;;;32.25;29.00;;;;;9.57;100.00;101612.97;5065975;28;45264;-84
2022/03/16 05:23:52;;;;;;;;;34.25;30.00;;;;;9.58;100.00;101617.38;5066924;28;44802;-84
2022/03/16 05:26:17;;;;;;;;;42.00;33.33;;;;;9.59;100.00;101611.13;5068173;28;45464;-88
2022/03/16 05:28:43;;;;;;;;;31.00;30.25;;;;;9.61;100.00;101622.50;5081093;27;46636;-88
2022/03/16 05:31:09;;;;;;;;;37.50;29.50;;;;;9.61;100.00;101626.00;5089338;28;44765;-88
2022/03/16 05:33:34;;;;;;;;;35.25;29.75;;;;;9.59;100.00;101630.53;5093206;27;44625;-86
2022/03/16 05:35:59;;;;;;;;;34.50;30.25;;;;;9.60;100.00;101636.69;5098247;28;44966;-87
2022/03/16 05:38:25;;;;;;;;;40.67;33.00;;;;;9.59;100.00;101638.50;5101125;27;45193;-86
2022/03/16 05:40:50;;;;;;;;;39.00;34.33;;;;;9.61;100.00;101638.41;5086585;27;44741;-89
2022/03/16 05:43:16;;;;;;;;;36.33;32.00;;;;;9.62;100.00;101637.47;5085006;27;44843;-89
2022/03/16 05:45:41;;;;;;;;;36.00;31.25;;;;;9.63;100.00;101647.19;5084087;27;45014;-88
2022/03/16 05:48:07;;;;;;;;;38.00;33.00;;;;;9.63;100.00;101640.06;5084170;27;45619;-87
2022/03/16 05:50:32;;;;;;;;;42.67;34.00;;;;;9.62;100.00;101646.31;5085537;27;44747;-85
2022/03/16 05:53:00;;;;;;;;;41.50;34.50;;;;;9.62;100.00;101637.47;5090314;27;45405;-85
2022/03/16 05:55:25;;;;;;;;;37.25;34.00;;;;;9.62;100.00;101640.13;5074903;27;45443;-85
2022/03/16 05:57:51;;;;;;;;;28.00;28.00;;;;;9.61;100.00;101636.63;5072222;28;46818;-86
2022/03/16 06:00:18;;;;;;;;;31.75;31.25;;;;;9.60;100.00;101640.22;5070060;28;44721;-86
2022/03/16 06:02:45;;;;;;;;;37.67;33.67;;;;;9.61;100.00;101644.56;5068462;28;44666;-86
2022/03/16 06:05:12;;;;;;;;;37.67;31.67;;;;;9.62;100.00;101643.66;5062022;28;44873;-88
2022/03/16 06:07:40;;;;;;;;;40.25;32.00;;;;;9.64;100.00;101636.47;5064091;28;45392;-87
2022/03/16 06:10:07;;;;;;;;;36.75;31.50;;;;;9.66;100.00;101639.91;5069345;28;45555;-87
2022/03/16 06:12:33;;;;;;;;;38.75;33.25;;;;;9.68;100.00;101646.00;5069824;28;44701;-86
2022/03/16 06:14:58;;;;;;;;;33.25;31.25;;;;;9.68;100.00;101639.84;5063604;28;44863;-87
2022/03/16 06:17:23;;;;;;;;;42.00;31.50;;;;;9.69;100.00;101642.41;5062725;28;45027;-87
2022/03/16 06:19:49;;;;;;;;;30.00;27.50;;;;;9.71;100.00;101645.00;5061995;28;44815;-87
2022/03/16 06:22:14;;;;;;;;;33.00;29.75;;;;;9.72;100.00;101639.63;5065745;28;45247;-87
2022/03/16 06:24:40;;;;;;;;;36.75;31.00;;;;;9.72;100.00;101634.31;5066606;28;45248;-87
2022/03/16 06:27:06;;;;;;;;;35.25;32.00;;;;;9.73;100.00;101637.84;5070228;28;46260;-87
2022/03/16 06:29:32;;;;;;;;;40.50;33.00;;;;;9.74;100.00;101640.41;5069779;28;45224;-88
2022/03/16 06:31:57;;;;;;;;;32.75;31.00;;;;;9.76;100.00;101642.97;5065509;28;44808;-87
2022/03/16 06:34:23;;;;;;;;;37.50;30.75;;;;;9.76;100.00;101654.44;5059561;28;45380;-88
2022/03/16 06:36:48;;;;;;;;;36.00;31.25;;;;;9.78;100.00;101651.72;5058746;28;47367;-88
2022/03/16 06:39:13;;;;;;;;;35.00;32.75;;;;;9.77;100.00;101650.03;5059952;28;45418;-88
2022/03/16 06:41:39;;;;;;;;;36.00;34.00;;;;;9.81;100.00;101654.22;5061466;28;44746;-88
2022/03/16 06:44:05;;;;;;;;;37.75;34.00;;;;;9.83;100.00;101654.16;5063809;28;44909;-86
2022/03/16 06:46:30;;;;;;;;;43.00;35.00;;;;;9.85;100.00;101661.09;5061874;28;45281;-88
2022/03/16 06:48:56;;;;;;;;;40.00;32.50;;;;;9.88;100.00;101663.63;5058874;28;45379;-88
2022/03/16 06:51:22;;;;;;;;;36.00;32.50;;;;;9.94;100.00;101668.63;5060668;28;45232;-88
2022/03/16 06:53:48;;;;;;;;;34.00;31.50;;;;;9.98;100.00;101672.84;5060248;28;44864;-90
2022/03/16 06:56:13;;;;;;;;;37.33;33.67;;;;;10.01;100.00;101674.50;5066463;28;45220;-89
2022/03/16 06:58:38;;;;;;;;;38.67;35.00;;;;;10.03;100.00;101677.91;5074283;28;44628;-88
2022/03/16 07:01:04;;;;;;;;;38.50;34.00;;;;;10.04;100.00;101669.88;5073613;27;45106;-87
2022/03/16 07:03:29;;;;;;;;;34.75;31.00;;;;;10.09;100.00;101674.94;5077798;28;44922;-89
2022/03/16 07:05:55;;;;;;;;;44.25;34.50;;;;;10.10;100.00;101670.50;5075136;28;47244;-89
2022/03/16 07:08:20;;;;;;;;;39.00;33.50;;;;;10.12;100.00;101668.66;5068078;28;44703;-88
2022/03/16 07:10:46;;;;;;;;;39.00;32.50;;;;;10.13;100.00;101662.41;5065166;28;45233;-87
2022/03/16 07:13:12;;;;;;;;;38.00;33.50;;;;;10.18;100.00;101663.03;5068997;28;45712;-90
2022/03/16 07:15:39;;;;;;;;;38.25;32.50;;;;;10.22;100.00;101662.78;5066782;28;46165;-89
2022/03/16 07:18:05;;;;;;;;;35.25;31.50;;;;;10.20;100.00;101656.72;5066261;28;44827;-88
2022/03/16 07:20:31;;;;;;;;;40.50;34.50;;;;;10.21;100.00;101660.22;5076899;28;45311;-81
2022/03/16 07:23:01;;;;;;;;;41.75;34.00;;;;;10.26;100.00;101660.88;5079370;27;44816;-82
2022/03/16 07:25:27;;;;;;;;;42.50;34.00;;;;;10.34;100.00;101660.47;5079828;27;45480;-83
2022/03/16 07:27:52;;;;;;;;;42.25;33.00;;;;;10.39;100.00;101661.94;5070815;28;45233;-89
2022/03/16 07:30:18;;;;;;;;;35.50;31.50;;;;;10.41;100.00;101667.19;5060429;27;45103;-89
2022/03/16 07:32:44;;;;;;;;;42.00;34.33;;;;;10.42;100.00;101664.47;5071851;27;44900;-89
2022/03/16 07:35:09;;;;;;;;;36.75;33.50;;;;;10.43;100.00;101662.66;5068358;28;47060;-88
2022/03/16 07:37:35;;;;;;;;;37.50;32.75;;;;;10.47;100.00;101664.22;5067444;28;44858;-89
2022/03/16 07:40:02;;;;;;;;;36.25;33.25;;;;;10.49;100.00;101660.56;5065501;28;45394;-91
2022/03/16 07:42:28;;;;;;;;;42.00;34.50;;;;;10.51;100.00;101671.09;5065457;27;44900;-88
2022/03/16 07:44:54;;;;;;;;;29.75;24.25;;;;;10.50;100.00;101664.94;5065812;27;45622;-87
2022/03/16 07:47:19;;;;;;;;;41.50;34.00;;;;;10.51;100.00;101658.69;5062970;28;45276;-87
2022/03/16 07:49:45;;;;;;;;;38.75;32.75;;;;;10.58;100.00;101661.00;5064218;28;44939;-87
2022/03/16 07:52:10;;;;;;;;;43.75;36.50;;;;;10.62;100.00;101663.41;5065791;28;45165;-89
2022/03/16 07:54:35;;;;;;;;;35.25;30.50;;;;;10.66;100.00;101672.09;5099822;27;45237;-87
2022/03/16 07:57:01;;;;;;;;;34.00;30.25;;;;;10.68;100.00;101655.13;5095187;27;45145;-88
2022/03/16 07:59:26;;;;;;;;;37.75;33.00;;;;;10.76;100.00;101662.69;5100759;27;44950;-88
2022/03/16 08:01:52;;;;;;;;;37.00;33.75;;;;;10.81;100.00;101656.19;5095644;27;44888;-88
2022/03/16 08:04:19;;;;;;;;;39.50;35.00;;;;;10.82;100.00;101655.25;5083813;27;45423;-88
2022/03/16 08:06:44;;;;;;;;;38.50;33.50;;;;;10.88;100.00;101663.84;5064400;27;45413;-86
2022/03/16 08:09:10;;;;;;;;;41.33;35.33;;;;;10.91;100.00;101661.88;5077666;28;45818;-88
2022/03/16 08:11:35;;;;;;;;;41.50;34.00;;;;;10.90;100.00;101646.03;5090464;27;44931;-88
2022/03/16 08:14:00;;;;;;;;;40.25;35.50;;;;;10.89;100.00;101646.97;5084898;27;45008;-87
2022/03/16 08:16:26;;;;;;;;;37.25;32.25;;;;;10.92;100.00;101644.13;5081960;27;44829;-87
2022/03/16 08:18:51;;;;;;;;;40.00;34.75;;;;;10.92;100.00;101646.78;5064987;28;45363;-87
2022/03/16 08:21:17;;;;;;;;;36.50;30.50;;;;;10.95;100.00;101641.31;5064344;27;45397;-86
2022/03/16 08:23:42;;;;;;;;;38.00;33.33;;;;;10.89;100.00;101633.69;5064814;28;44855;-88
2022/03/16 08:26:07;;;;;;;;;45.25;35.50;;;;;10.91;100.00;101634.44;5064507;28;45248;-88
2022/03/16 08:28:33;;;;;;;;;39.67;34.67;;;;;10.96;100.00;101637.72;5065013;28;45068;-87
2022/03/16 08:30:59;;;;;;;;;43.67;34.00;;;;;10.98;100.00;101635.84;5061713;28;44844;-88
2022/03/16 08:33:24;;;;;;;;;38.25;33.75;;;;;11.01;100.00;101631.19;5069939;28;45229;-88
2022/03/16 08:35:51;;;;;;;;;40.75;35.00;;;;;11.04;100.00;101628.38;5068996;28;45256;-87
2022/03/16 08:38:16;;;;;;;;;42.25;34.75;;;;;11.10;100.00;101634.31;5068570;28;45210;-88
2022/03/16 08:40:42;;;;;;;;;36.50;34.00;;;;;11.10;100.00;101631.66;5071198;28;44896;-87
2022/03/16 08:43:08;;;;;;;;;36.75;33.25;;;;;11.13;100.00;101635.00;5068204;28;46806;-87
2022/03/16 08:45:33;;;;;;;;;42.25;35.00;;;;;11.18;100.00;101634.75;5066700;28;44995;-89
2022/03/16 08:47:59;;;;;;;;;44.50;33.25;;;;;11.21;100.00;101647.88;5069467;28;45390;-89
2022/03/16 08:50:25;;;;;;;;;41.75;34.75;;;;;11.26;100.00;101651.13;5063184;28;44801;-88
2022/03/16 08:52:50;;;;;;;;;38.75;33.25;;;;;11.31;100.00;101659.72;5064703;28;45476;-89
2022/03/16 08:55:16;;;;;;;;;36.00;32.75;;;;;11.35;100.00;101652.44;5062903;27;45437;-90
2022/03/16 08:57:43;;;;;;;;;38.75;32.00;;;;;11.39;100.00;101646.84;5071011;28;44714;-90
2022/03/16 09:00:14;;;;;;;;;39.00;32.25;;;;;11.46;100.00;101652.69;5065031;28;44974;-87
2022/03/16 09:02:40;;;;;;;;;40.00;35.25;;;;;11.53;100.00;101657.59;5064785;28;45327;-89
2022/03/16 09:05:06;;;;;;;;;39.25;33.50;;;;;11.64;100.00;101661.44;5068419;28;44835;-88
2022/03/16 09:07:31;;;;;;;;;40.00;33.25;;;;;11.71;100.00;101662.81;5074497;28;45354;-86
2022/03/16 09:09:57;;;;;;;;;41.25;34.75;;;;;11.74;100.00;101663.47;5083548;28;45571;-88
2022/03/16 09:12:24;;;;;;;;;48.67;39.67;;;;;11.83;100.00;101662.13;5076374;27;45598;-87
2022/03/16 09:14:49;;;;;;;;;38.75;33.50;;;;;11.93;100.00;101654.47;5061290;28;45390;-89
2022/03/16 09:17:17;;;;;;;;;38.25;32.25;;;;;12.00;100.00;101661.19;5060513;28;45315;-88
2022/03/16 09:19:44;;;;;;;;;44.50;35.50;;;;;12.09;100.00;101657.97;5061284;27;44860;-86
2022/03/16 09:22:10;;;;;;;;;40.75;34.25;;;;;12.17;100.00;101654.84;5066031;27;47015;-85
2022/03/16 09:24:38;;;;;;;;;45.00;35.33;;;;;12.23;100.00;101649.16;5065041;28;44827;-86
2022/03/16 09:27:04;;;;;;;;;38.25;34.00;;;;;12.32;100.00;101643.28;5079452;27;44769;-87
2022/03/16 09:29:29;;;;;;;;;40.25;35.00;;;;;12.39;100.00;101646.47;5080846;27;45328;-85
2022/03/16 09:31:55;;;;;;;;;39.00;34.25;;;;;12.46;100.00;101640.66;5082078;27;45939;-86
2022/03/16 09:34:22;;;;;;;;;35.50;32.50;;;;;12.53;100.00;101652.66;5084421;27;45385;-86
2022/03/16 09:36:48;;;;;;;;;41.75;32.00;;;;;12.59;100.00;101651.44;5086240;27;45368;-84
2022/03/16 09:39:15;;;;;;;;;30.50;29.50;;;;;12.65;100.00;101647.53;5083103;27;44753;-87
2022/03/16 09:41:40;;;;;;;;;33.75;32.00;;;;;12.73;100.00;101647.94;5080164;27;46939;-85
2022/03/16 09:44:06;;;;;;;;;39.25;34.50;;;;;12.79;100.00;101656.41;5082295;27;45270;-87
2022/03/16 09:46:36;;;;;;;;;39.25;34.75;;;;;12.88;100.00;101652.31;5082739;27;44794;-91
2022/03/16 09:49:04;;;;;;;;;41.25;32.50;;;;;12.95;100.00;101640.28;5064628;28;45007;-87
2022/03/16 09:51:35;;;;;;;;;40.25;35.75;;;;;13.01;100.00;101633.75;5071857;27;45318;-88
2022/03/16 09:54:01;;;;;;;;;47.33;39.67;;;;;13.04;100.00;101638.88;5095114;27;45204;-87
2022/03/16 09:56:26;;;;;;;;;41.00;33.75;;;;;13.10;100.00;101634.03;5084077;27;45411;-88
2022/03/16 09:58:52;;;;;;;;;45.50;34.50;;;;;13.21;100.00;101629.81;5078710;27;44921;-87
2022/03/16 10:01:18;;;;;;;;;46.50;39.50;;;;;13.21;100.00;101624.47;5075735;27;45199;-87
2022/03/16 10:03:48;;;;;;;;;52.25;37.75;;;;;13.26;100.00;101631.28;5059006;28;44901;-87
2022/03/16 10:06:16;;;;;;;;;39.75;37.75;;;;;13.31;100.00;101620.31;5060539;28;45224;-88
2022/03/16 10:08:42;;;;;;;;;44.75;36.25;;;;;13.31;100.00;101625.63;5067743;28;45483;-87
2022/03/16 10:14:11;;;;;;;;;46.00;37.50;;;;;13.44;100.00;101625.69;5066004;28;45214;-86
2022/03/16 10:19:44;;;;;;;;;39.75;36.50;;;;;13.57;100.00;101621.28;5066490;28;44650;-86
2022/03/16 10:22:09;;;;;;;;;41.75;35.50;;;;;13.62;100.00;101621.81;5071989;27;45165;-85
2022/03/16 10:24:41;;;;;;;;;39.50;33.75;;;;;13.69;100.00;101611.63;5088029;27;44726;-84
2022/03/16 10:27:06;;;;;;;;;42.50;35.50;;;;;13.75;100.00;101608.53;5075929;28;44788;-86
2022/03/16 10:29:31;;;;;;;;;36.75;35.25;;;;;13.83;100.00;101606.22;5084566;27;44866;-85
2022/03/16 10:32:01;;;;;;;;;36.00;34.00;;;;;13.93;100.00;101609.13;5072420;27;45410;-85
2022/03/16 10:34:27;;;;;;;;;40.00;36.25;;;;;13.98;100.00;101607.00;5086455;27;44769;-86
2022/03/16 10:36:52;;;;;;;;;31.50;31.50;;;;;14.06;100.00;101605.50;5084840;27;45306;-84
2022/03/16 10:39:18;;;;;;;;;37.00;34.25;;;;;14.10;100.00;101612.34;5070084;28;45193;-84
2022/03/16 10:47:16;;;;;;;;;43.00;36.00;;;;;14.45;100.00;101598.38;5070195;28;44874;-83
2022/03/16 10:49:42;;;;;;;;;38.50;34.25;;;;;14.53;100.00;101603.25;5077839;27;45472;-86
2022/03/16 10:52:11;;;;;;;;;29.00;29.00;;;;;14.63;100.00;101598.97;5068822;28;45468;-87
2022/03/16 10:54:38;;;;;;;;;37.50;35.00;;;;;14.67;100.00;101603.13;5057873;27;45379;-85
2022/03/16 10:57:05;;;;;;;;;40.00;35.00;;;;;14.75;100.00;101582.06;5063222;28;44765;-85
2022/03/16 10:59:33;;;;;;;;;40.50;34.00;;;;;14.83;100.00;101582.34;5076924;27;44947;-86
2022/03/16 11:02:05;;;;;;;;;40.75;32.50;;;;;14.95;100.00;101572.59;5060963;27;45350;-87
2022/03/16 11:04:34;;;;;;;;;33.40;29.60;;;;;15.10;100.00;101573.31;5059895;28;44898;-87
2022/03/16 11:07:01;;;;;;;;;36.00;29.25;;;;;15.11;100.00;101561.63;5065080;28;44796;-88
2022/03/16 11:09:28;;;;;;;;;28.25;24.75;;;;;15.20;100.00;101558.28;5081483;27;44797;-85